createdAt,value
2022-08-22T00:01:33.271Z,100019.41
2022-08-22T00:02:58.172Z,99906.69
2022-08-22T00:03:12.734Z,99994.59
2022-08-22T00:04:19.729Z,100014.31
2022-08-22T00:06:51.991Z,100023.13
2022-08-22T00:09:41.257Z,100022.53
2022-08-22T00:12:16.115Z,100023.34
2022-08-22T00:15:07.528Z,100023.03
2022-08-22T00:18:20.520Z,100008.81
2022-08-22T00:21:08.232Z,100026.72
2022-08-22T00:23:44.386Z,100017.63
2022-08-22T00:26:35.525Z,100009.38
2022-08-22T00:29:16.026Z,100017.34
2022-08-22T00:31:58.790Z,100032.28
2022-08-22T00:34:41.262Z,100028.00
2022-08-22T00:37:21.793Z,100020.72
2022-08-22T00:40:19.282Z,100019.63
2022-08-22T00:42:56.844Z,100023.00
2022-08-22T00:45:44.396Z,100029.97
2022-08-22T00:48:35.171Z,100025.41
2022-08-22T00:51:32.920Z,99995.66
2022-08-22T00:54:23.073Z,100011.84
2022-08-22T00:57:24.056Z,100035.56
2022-08-22T01:00:15.926Z,100028.75
2022-08-22T01:03:04.035Z,100031.44
2022-08-22T01:05:51.579Z,100010.03
2022-08-22T01:08:35.200Z,100021.66
2022-08-22T01:11:07.320Z,100023.25
2022-08-22T01:13:56.192Z,99996.72
2022-08-22T01:16:43.757Z,99997.84
2022-08-22T01:19:50.126Z,100006.50
2022-08-22T01:22:59.490Z,99992.63
2022-08-22T01:25:34.909Z,99987.25
2022-08-22T01:28:15.302Z,99996.81
2022-08-22T01:31:21.985Z,99998.31
2022-08-22T01:34:27.889Z,100001.47
2022-08-22T01:37:00.429Z,100004.66
2022-08-22T01:39:38.655Z,100008.16
2022-08-22T01:42:42.716Z,99981.94
2022-08-22T01:45:32.015Z,100001.03
2022-08-22T01:48:18.205Z,99990.69
2022-08-22T01:50:48.447Z,100000.72
2022-08-22T01:53:43.448Z,99977.31
2022-08-22T01:56:20.521Z,99990.25
2022-08-22T01:59:03.352Z,99998.56
2022-08-22T02:02:00.543Z,99992.41
2022-08-22T02:05:02.728Z,99987.25
2022-08-22T02:07:34.859Z,99984.78
2022-08-22T02:10:18.104Z,99967.53
2022-08-22T02:12:51.120Z,99976.22
2022-08-22T02:15:28.444Z,99979.06
2022-08-22T02:18:29.017Z,99969.72
2022-08-22T02:21:42.098Z,99966.91
2022-08-22T02:24:42.320Z,99967.41
2022-08-22T02:27:41.061Z,99962.00
2022-08-22T02:30:14.261Z,99930.41
2022-08-22T02:32:43.803Z,99924.78
2022-08-22T02:35:49.599Z,99941.22
2022-08-22T02:38:43.388Z,99933.94
2022-08-22T02:41:32.219Z,99935.81
2022-08-22T02:44:21.835Z,99934.72
2022-08-22T02:47:12.725Z,99933.63
2022-08-22T02:49:53.997Z,99921.75
2022-08-22T02:52:57.135Z,99925.53
2022-08-22T02:55:52.785Z,99926.03
2022-08-22T02:59:15.726Z,99926.84
2022-08-22T03:01:47.932Z,99906.28
2022-08-22T03:04:28.177Z,99911.69
2022-08-22T03:07:08.967Z,99921.13
2022-08-22T03:09:41.572Z,99924.91
2022-08-22T03:12:17.952Z,99914.75
2022-08-22T03:14:58.249Z,99908.22
2022-08-22T03:17:36.323Z,99912.53
2022-08-22T03:20:22.076Z,99905.38
2022-08-22T03:22:59.346Z,99892.34
2022-08-22T03:26:01.968Z,99892.03
2022-08-22T03:29:06.593Z,99911.91
2022-08-22T03:31:37.866Z,99900.19
2022-08-22T03:34:25.273Z,99906.03
2022-08-22T03:37:06.724Z,99910.53
2022-08-22T03:40:02.363Z,99911.78
2022-08-22T03:42:59.121Z,99904.50
2022-08-22T03:46:06.563Z,99873.78
2022-08-22T03:49:12.648Z,99921.94
2022-08-22T03:51:57.095Z,99913.09
2022-08-22T03:54:47.899Z,99907.38
2022-08-22T03:58:00.127Z,99895.44
2022-08-22T04:00:51.043Z,99894.78
2022-08-22T04:03:47.234Z,99910.06
2022-08-22T04:06:40.989Z,99908.47
2022-08-22T04:09:42.697Z,99906.88
2022-08-22T04:12:41.339Z,99874.78
2022-08-22T04:15:38.450Z,99884.81
2022-08-22T04:18:48.619Z,99882.44
2022-08-22T04:21:49.265Z,99889.91
2022-08-22T04:24:18.368Z,99878.31
2022-08-22T04:27:13.820Z,99878.94
2022-08-22T04:29:54.439Z,99869.41
2022-08-22T04:32:46.492Z,99874.03
2022-08-22T04:35:46.903Z,99850.84
2022-08-22T04:38:19.355Z,99874.53
2022-08-22T04:41:10.080Z,99861.84
2022-08-22T04:43:45.141Z,99864.38
2022-08-22T04:46:36.987Z,99853.09
2022-08-22T04:49:35.993Z,99850.41
2022-08-22T04:52:16.464Z,99849.28
2022-08-22T04:55:12.887Z,99858.66
2022-08-22T04:58:00.558Z,99855.16
2022-08-22T05:01:07.849Z,99846.28
2022-08-22T05:03:45.405Z,99847.06
2022-08-22T05:06:17.262Z,99820.69
2022-08-22T05:08:48.476Z,99839.13
2022-08-22T05:11:25.410Z,99827.84
2022-08-22T05:14:01.396Z,99811.34
2022-08-22T05:16:38.583Z,99825.50
2022-08-22T05:19:24.930Z,99810.22
2022-08-22T05:21:58.983Z,99814.53
2022-08-22T05:24:34.174Z,99816.59
2022-08-22T05:27:12.605Z,99814.72
2022-08-22T05:29:45.233Z,99812.34
2022-08-22T05:32:32.737Z,99800.56
2022-08-22T05:35:05.271Z,99795.81
2022-08-22T05:37:49.532Z,99814.72
2022-08-22T05:40:32.839Z,99794.22
2022-08-22T05:43:02.096Z,99803.44
2022-08-22T05:45:32.039Z,99789.16
2022-08-22T05:48:18.339Z,99812.50
2022-08-22T05:50:51.561Z,99810.63
2022-08-22T05:53:33.380Z,99815.53
2022-08-22T05:56:21.098Z,99768.44
2022-08-22T05:59:25.955Z,99803.75
2022-08-22T06:02:19.508Z,99799.03
2022-08-22T06:04:48.749Z,99809.81
2022-08-22T06:07:36.052Z,99802.34
2022-08-22T06:10:27.599Z,99802.34
2022-08-22T06:13:33.486Z,99790.75
2022-08-22T06:16:22.153Z,99804.72
2022-08-22T06:18:52.857Z,99796.47
2022-08-22T06:21:32.542Z,99783.13
2022-08-22T06:24:06.562Z,99767.41
2022-08-22T06:26:40.554Z,99787.88
2022-08-22T06:29:13.944Z,99788.38
2022-08-22T06:31:50.138Z,99777.09
2022-08-22T06:34:25.087Z,99774.09
2022-08-22T06:36:57.722Z,99763.94
2022-08-22T06:39:31.821Z,99767.44
2022-08-22T06:42:20.053Z,99770.91
2022-08-22T06:44:52.276Z,99780.91
2022-08-22T06:47:34.618Z,99780.44
2022-08-22T06:50:13.701Z,99758.34
2022-08-22T06:52:55.162Z,99729.56
2022-08-22T06:55:26.131Z,99746.16
2022-08-22T06:58:02.535Z,99765.06
2022-08-22T07:00:36.546Z,99747.56
2022-08-22T07:03:34.798Z,99768.53
2022-08-22T07:06:05.187Z,99748.84
2022-08-22T07:08:39.208Z,99760.44
2022-08-22T07:11:30.633Z,99747.91
2022-08-22T07:14:13.586Z,99756.16
2022-08-22T07:17:04.967Z,99752.97
2022-08-22T07:19:49.422Z,99745.53
2022-08-22T07:22:25.539Z,99746.50
2022-08-22T07:25:13.351Z,99747.28
2022-08-22T07:27:45.723Z,99740.97
2022-08-22T07:30:27.514Z,99736.19
2022-08-22T07:33:21.023Z,99730.78
2022-08-22T07:36:05.358Z,99723.31
2022-08-22T07:39:00.456Z,99727.78
2022-08-22T07:42:11.684Z,99730.97
2022-08-22T07:44:56.346Z,99726.38
2022-08-22T07:47:27.298Z,99719.69
2022-08-22T07:50:08.211Z,99684.91
2022-08-22T07:52:43.568Z,99720.81
2022-08-22T07:55:23.881Z,99723.19
2022-08-22T07:58:00.650Z,99734.47
2022-08-22T08:00:33.786Z,99720.50
2022-08-22T08:03:15.777Z,99719.22
2022-08-22T08:05:46.376Z,99730.00
2022-08-22T08:08:48.040Z,99740.97
2022-08-22T08:11:20.323Z,99725.38
2022-08-22T08:13:55.452Z,99747.94
2022-08-22T08:16:30.285Z,99745.25
2022-08-22T08:19:00.686Z,99749.81
2022-08-22T08:21:41.327Z,99727.78
2022-08-22T08:24:16.110Z,99740.47
2022-08-22T08:27:10.255Z,99721.25
2022-08-22T08:29:39.877Z,99726.16
2022-08-22T08:32:11.988Z,99716.81
2022-08-22T08:34:51.946Z,99736.50
2022-08-22T08:37:50.598Z,99741.09
2022-08-22T08:40:44.058Z,99752.84
2022-08-22T08:43:29.233Z,99750.47
2022-08-22T08:46:35.435Z,99745.88
2022-08-22T08:49:11.036Z,99746.97
2022-08-22T08:52:05.113Z,99748.88
2022-08-22T08:54:56.949Z,99756.16
2022-08-22T08:57:45.201Z,99758.88
2022-08-22T09:00:30.294Z,99759.97
2022-08-22T09:03:31.060Z,99766.94
2022-08-22T09:06:35.801Z,99744.09
2022-08-22T09:09:15.570Z,99760.25
2022-08-22T09:12:21.712Z,99762.38
2022-08-22T09:15:02.121Z,99767.75
2022-08-22T09:17:49.402Z,99765.06
2022-08-22T09:20:53.516Z,99764.25
2022-08-22T09:23:42.559Z,99775.03
2022-08-22T09:26:19.109Z,99778.06
2022-08-22T09:29:11.728Z,99782.31
2022-08-22T09:31:57.068Z,99772.00
2022-08-22T09:34:45.583Z,99781.84
2022-08-22T09:37:30.387Z,99782.16
2022-08-22T09:40:13.402Z,99790.72
2022-08-22T09:43:13.041Z,99765.09
2022-08-22T09:46:02.117Z,99764.28
2022-08-22T09:49:05.641Z,99782.13
2022-08-22T09:52:14.598Z,99801.50
2022-08-22T09:55:35.572Z,99792.47
2022-08-22T09:58:32.309Z,99797.25
2022-08-22T10:01:14.470Z,99792.78
2022-08-22T10:04:23.753Z,99802.63
2022-08-22T10:07:12.208Z,99807.53
2022-08-22T10:09:58.340Z,99801.34
2022-08-22T10:12:36.603Z,99786.03
2022-08-22T10:15:19.179Z,99798.47
2022-08-22T10:18:02.654Z,99801.16
2022-08-22T10:20:38.345Z,99781.44
2022-08-22T10:23:31.071Z,99789.28
2022-08-22T10:26:38.511Z,99791.19
2022-08-22T10:29:40.230Z,99780.47
2022-08-22T10:32:15.887Z,99809.25
2022-08-22T10:34:50.083Z,99799.69
2022-08-22T10:37:39.454Z,99813.06
2022-08-22T10:40:31.148Z,99815.56
2022-08-22T10:43:30.953Z,99816.88
2022-08-22T10:46:34.611Z,99819.56
2022-08-22T10:49:20.652Z,99792.47
2022-08-22T10:52:20.195Z,99824.94
2022-08-22T10:55:27.519Z,99803.63
2022-08-22T10:57:56.993Z,99813.47
2022-08-22T11:01:00.402Z,99824.16
2022-08-22T11:03:51.071Z,99832.25
2022-08-22T11:06:32.910Z,99825.53
2022-08-22T11:09:20.746Z,99815.81
2022-08-22T11:11:52.748Z,99840.63
2022-08-22T11:14:46.263Z,99846.53
2022-08-22T11:17:34.615Z,99855.38
2022-08-22T11:20:25.367Z,99823.25
2022-08-22T11:23:21.723Z,99854.91
2022-08-22T11:26:09.193Z,99864.28
2022-08-22T11:28:56.439Z,99866.16
2022-08-22T11:31:51.470Z,99863.47
2022-08-22T11:34:42.641Z,99869.66
2022-08-22T11:37:43.330Z,99868.66
2022-08-22T11:40:38.799Z,99874.56
2022-08-22T11:43:24.931Z,99876.63
2022-08-22T11:45:58.988Z,99874.25
2022-08-22T11:49:01.688Z,99873.88
2022-08-22T11:52:25.853Z,99872.28
2022-08-22T11:55:21.659Z,99892.81
2022-08-22T11:57:53.407Z,99886.47
2022-08-22T12:00:29.205Z,99903.59
2022-08-22T12:03:40.046Z,99907.41
2022-08-22T12:06:20.863Z,99900.13
2022-08-22T12:08:52.899Z,99900.91
2022-08-22T12:11:36.554Z,99896.13
2022-08-22T12:14:21.559Z,99905.34
2022-08-22T12:17:50.733Z,99909.00
2022-08-22T12:20:29.861Z,99911.69
2022-08-22T12:23:43.185Z,99910.09
2022-08-22T12:26:37.614Z,99900.66
2022-08-22T12:29:44.897Z,99916.28
2022-08-22T12:32:50.318Z,99925.16
2022-08-22T12:35:46.343Z,99913.91
2022-08-22T12:38:49.958Z,99917.69
2022-08-22T12:41:37.237Z,99923.09
2022-08-22T12:44:17.245Z,99932.47
2022-08-22T12:47:04.651Z,99930.88
2022-08-22T12:49:52.346Z,99934.38
2022-08-22T12:52:33.300Z,99931.66
2022-08-22T12:55:27.401Z,99934.47
2022-08-22T12:58:12.945Z,99912.50
2022-08-22T13:00:46.264Z,99947.53
2022-08-22T13:03:26.119Z,99951.34
2022-08-22T13:06:00.020Z,99913.88
2022-08-22T13:08:39.037Z,99945.75
2022-08-22T13:11:22.592Z,99943.88
2022-08-22T13:14:00.199Z,99936.47
2022-08-22T13:16:41.797Z,99948.66
2022-08-22T13:19:23.401Z,99929.44
2022-08-22T13:22:09.432Z,99939.97
2022-08-22T13:28:16.153Z,99963.53
2022-08-22T13:30:45.785Z,99972.28
2022-08-22T13:33:27.282Z,99973.88
2022-08-22T13:36:01.578Z,99979.56
2022-08-22T13:38:34.331Z,99959.34
2022-08-22T13:41:10.153Z,99975.28
2022-08-22T13:43:59.805Z,99964.22
2022-08-22T13:46:35.436Z,99976.78
2022-08-22T13:49:10.223Z,99986.38
2022-08-22T13:52:08.325Z,99994.66
2022-08-22T13:54:54.682Z,99992.75
2022-08-22T13:57:33.714Z,99994.66
2022-08-22T14:00:25.473Z,100002.75
2022-08-22T14:03:09.521Z,99990.97
2022-08-22T14:05:59.056Z,99999.75
2022-08-22T14:08:50.239Z,99993.38
2022-08-22T14:11:47.115Z,99991.47
2022-08-22T14:14:26.402Z,99995.75
2022-08-22T14:16:57.297Z,100001.63
2022-08-22T14:19:53.134Z,99993.38
2022-08-22T14:22:31.804Z,99983.78
2022-08-22T14:25:07.608Z,99980.72
2022-08-22T14:27:54.545Z,99994.66
2022-08-22T14:30:27.746Z,99981.41
2022-08-22T14:33:01.475Z,99985.97
2022-08-22T14:35:42.889Z,99995.25
2022-08-22T14:38:46.271Z,100007.84
2022-08-22T14:41:52.758Z,100014.00
2022-08-22T14:44:32.391Z,100003.84
2022-08-22T14:47:15.842Z,100016.69
2022-08-22T14:50:00.161Z,100012.13
2022-08-22T14:52:34.930Z,100012.13
2022-08-22T14:55:16.037Z,100007.34
2022-08-22T14:58:10.528Z,100016.69
2022-08-22T15:00:45.552Z,100014.00
2022-08-22T15:03:26.004Z,100015.63
2022-08-22T15:05:59.746Z,100000.38
2022-08-22T15:08:42.456Z,100009.41
2022-08-22T15:11:23.639Z,100009.09
2022-08-22T15:14:13.560Z,100016.13
2022-08-22T15:16:59.337Z,100005.91
2022-08-22T15:19:30.957Z,100014.00
2022-08-22T15:22:29.459Z,100018.81
2022-08-22T15:25:20.649Z,100020.38
2022-08-22T15:27:59.140Z,100015.00
2022-08-22T15:30:44.562Z,100022.28
2022-08-22T15:33:27.776Z,100011.00
2022-08-22T15:36:12.479Z,100011.50
2022-08-22T15:38:56.207Z,100006.91
2022-08-22T15:41:40.251Z,99989.38
2022-08-22T15:44:32.196Z,99969.63
2022-08-22T15:47:28.640Z,100003.09
2022-08-22T15:50:07.064Z,99990.22
2022-08-22T15:53:15.008Z,99994.53
2022-08-22T15:56:08.978Z,99988.84
2022-08-22T15:58:38.623Z,99956.94
2022-08-22T16:01:19.805Z,99988.03
2022-08-22T16:04:08.793Z,99981.84
2022-08-22T16:06:46.800Z,99981.53
2022-08-22T16:09:37.528Z,99974.56
2022-08-22T16:12:26.258Z,99972.66
2022-08-22T16:14:59.912Z,99970.75
2022-08-22T16:17:32.413Z,99973.44
2022-08-22T16:20:19.909Z,99969.97
2022-08-22T16:23:01.378Z,99958.69
2022-08-22T16:25:49.122Z,99948.72
2022-08-22T16:28:41.525Z,99943.59
2022-08-22T16:31:40.110Z,99957.56
2022-08-22T16:34:40.924Z,99952.00
2022-08-22T16:37:11.355Z,99931.97
2022-08-22T16:39:41.357Z,99915.72
2022-08-22T16:42:25.899Z,99943.31
2022-08-22T16:45:10.507Z,99946.00
2022-08-22T16:47:56.800Z,99935.50
2022-08-22T16:50:29.698Z,99936.81
2022-08-22T16:53:00.707Z,99917.69
2022-08-22T16:55:32.735Z,99924.44
2022-08-22T16:58:10.480Z,99920.63
2022-08-22T17:00:51.618Z,99927.91
2022-08-22T17:03:36.111Z,99923.00
2022-08-22T17:06:40.532Z,99916.34
2022-08-22T17:09:24.823Z,99914.94
2022-08-22T17:12:15.289Z,99914.13
2022-08-22T17:15:05.889Z,99914.94
2022-08-22T17:17:52.099Z,99914.44
2022-08-22T17:20:30.840Z,99914.44
2022-08-22T17:23:27.612Z,99875.41
2022-08-22T17:26:01.548Z,99919.81
2022-08-22T17:28:48.997Z,99923.81
2022-08-22T17:31:45.650Z,99922.22
2022-08-22T17:34:38.425Z,99927.28
2022-08-22T17:37:11.102Z,99906.78
2022-08-22T17:40:06.106Z,99912.66
2022-08-22T17:42:53.259Z,99918.44
2022-08-22T17:45:40.613Z,99917.31
2022-08-22T17:48:10.043Z,99896.63
2022-08-22T17:50:53.775Z,99912.22
2022-08-22T17:53:45.663Z,99895.81
2022-08-22T17:56:21.094Z,99909.03
2022-08-22T17:59:20.825Z,99918.75
2022-08-22T18:02:11.169Z,99899.00
2022-08-22T18:04:52.821Z,99912.84
2022-08-22T18:07:47.315Z,99916.81
2022-08-22T18:10:39.678Z,99915.72
2022-08-22T18:13:30.830Z,99916.34
2022-08-22T18:16:07.587Z,99901.56
2022-08-22T18:18:37.712Z,99897.13
2022-08-22T18:21:23.181Z,99882.56
2022-08-22T18:24:02.666Z,99892.34
2022-08-22T18:26:38.386Z,99911.75
2022-08-22T18:29:11.258Z,99891.22
2022-08-22T18:31:51.112Z,99907.16
2022-08-22T18:34:40.750Z,99909.84
2022-08-22T18:37:35.462Z,99893.13
2022-08-22T18:40:05.243Z,99910.97
2022-08-22T18:43:00.490Z,99879.09
2022-08-22T18:45:48.159Z,99907.47
2022-08-22T18:48:49.535Z,99886.94
2022-08-22T18:51:27.332Z,99898.38
2022-08-22T18:53:59.716Z,99915.25
2022-08-22T18:56:51.510Z,99914.44
2022-08-22T19:00:18.306Z,99915.56
2022-08-22T19:03:17.619Z,99909.84
2022-08-22T19:05:49.292Z,99914.13
2022-08-22T19:08:28.606Z,99914.13
2022-08-22T19:11:10.317Z,99912.22
2022-08-22T19:13:49.587Z,99908.25
2022-08-22T19:16:32.927Z,99908.72
2022-08-22T19:19:57.080Z,99909.66
2022-08-22T19:22:37.072Z,99916.03
2022-08-22T19:25:15.503Z,99863.34
2022-08-22T19:28:12.916Z,99913.34
2022-08-22T19:30:53.287Z,99904.28
2022-08-22T19:33:40.582Z,99883.25
2022-08-22T19:36:15.521Z,99905.56
2022-08-22T19:38:58.743Z,99893.94
2022-08-22T19:41:58.075Z,99914.94
2022-08-22T19:44:34.218Z,99913.03
2022-08-22T19:47:19.768Z,99917.63
2022-08-22T19:50:05.468Z,99915.72
2022-08-22T19:52:56.422Z,99892.81
2022-08-22T19:55:40.935Z,99891.22
2022-08-22T19:58:17.878Z,99889.34
2022-08-22T20:01:21.506Z,99892.81
2022-08-22T20:04:01.989Z,99886.66
2022-08-22T20:06:44.109Z,99911.44
2022-08-22T20:09:23.066Z,99906.03
2022-08-22T20:12:15.950Z,99905.06
2022-08-22T20:14:47.099Z,99875.28
2022-08-22T20:17:40.002Z,99909.84
2022-08-22T20:20:24.502Z,99904.72
2022-08-22T20:23:19.652Z,99912.53
2022-08-22T20:25:52.348Z,99913.16
2022-08-22T20:28:48.863Z,99922.53
2022-08-22T20:31:28.217Z,99926.03
2022-08-22T20:34:02.624Z,99924.44
2022-08-22T20:36:32.671Z,99913.78
2022-08-22T20:39:12.244Z,99925.66
2022-08-22T20:41:44.063Z,99931.72
2022-08-22T20:44:17.099Z,99933.31
2022-08-22T20:47:04.569Z,99937.44
2022-08-22T20:49:39.048Z,99933.44
2022-08-22T20:52:11.110Z,99946.00
2022-08-22T20:54:43.889Z,99921.78
2022-08-22T20:57:21.314Z,99946.28
2022-08-22T20:59:59.345Z,99934.53
2022-08-22T21:02:36.190Z,99949.28
2022-08-22T21:05:18.159Z,99963.78
2022-08-22T21:07:50.080Z,99955.19
2022-08-22T21:10:46.592Z,99966.47
2022-08-22T21:13:50.263Z,99972.34
2022-08-22T21:16:34.940Z,99941.28
2022-08-22T21:19:04.459Z,99969.16
2022-08-22T21:21:36.469Z,99971.56
2022-08-22T21:24:10.651Z,99960.50
2022-08-22T21:26:50.083Z,99980.44
2022-08-22T21:29:19.404Z,99957.50
2022-08-22T21:32:10.064Z,99978.84
2022-08-22T21:34:44.889Z,99978.38
2022-08-22T21:37:27.280Z,99979.63
2022-08-22T21:40:19.460Z,99987.41
2022-08-22T21:43:03.559Z,99986.59
2022-08-22T21:45:52.656Z,99995.31
2022-08-22T21:48:57.106Z,99975.28
2022-08-22T21:51:31.037Z,99984.84
2022-08-22T21:54:22.342Z,99992.00
2022-08-22T21:56:55.030Z,99994.69
2022-08-22T21:59:50.968Z,99972.59
2022-08-22T22:02:39.657Z,99988.84
2022-08-22T22:05:15.727Z,99976.88
2022-08-22T22:07:47.324Z,99979.25
2022-08-22T22:10:19.530Z,99982.66
2022-08-22T22:12:49.891Z,99993.63
2022-08-22T22:15:21.464Z,100008.88
2022-08-22T22:17:51.243Z,100003.28
2022-08-22T22:20:22.204Z,100016.97
2022-08-22T22:22:52.567Z,100014.88
2022-08-22T22:25:40.233Z,100014.88
2022-08-22T22:28:22.743Z,100004.09
2022-08-22T22:30:54.522Z,100020.47
2022-08-22T22:33:29.155Z,100015.56
2022-08-22T22:36:00.874Z,100009.06
2022-08-22T22:38:30.297Z,99995.31
2022-08-22T22:40:59.739Z,100007.75
2022-08-22T22:43:30.119Z,100011.25
2022-08-22T22:46:01.401Z,100007.47
2022-08-22T22:48:30.783Z,100019.03
2022-08-22T22:51:00.189Z,99997.91
2022-08-22T22:53:40.455Z,100010.31
2022-08-22T22:56:15.856Z,100010.94
2022-08-22T22:58:45.522Z,100002.06
2022-08-22T23:01:21.040Z,100011.13
2022-08-22T23:03:55.535Z,100023.88
2022-08-22T23:06:27.529Z,100024.69
2022-08-22T23:08:57.236Z,100029.16
2022-08-22T23:11:29.268Z,100013.50
2022-08-22T23:13:59.238Z,100015.59
2022-08-22T23:16:32.040Z,100021.38
2022-08-22T23:19:10.612Z,100026.63
2022-08-22T23:21:40.491Z,100000.34
2022-08-22T23:24:10.279Z,100029.31
2022-08-22T23:26:40.390Z,100028.22
2022-08-22T23:29:09.752Z,100027.44
2022-08-22T23:31:40.196Z,100025.63
2022-08-22T23:34:15.183Z,100021.06
2022-08-22T23:36:47.196Z,100043.41
2022-08-22T23:39:17.548Z,100040.69
2022-08-22T23:41:47.619Z,100043.88
2022-08-22T23:44:18.848Z,100048.50
2022-08-22T23:46:48.360Z,100039.28
2022-08-22T23:49:18.255Z,100009.44
2022-08-22T23:51:49.846Z,100020.34
2022-08-22T23:54:20.478Z,100044.84
2022-08-22T23:56:52.889Z,100009.94
2022-08-22T23:59:28.063Z,100042.66
